sensor_id;sensor_type;location;lat;lon;timestamp;P1;durP1;ratioP1;P2;durP2;ratioP2
17917;SDS011;9084;50.956;3.106;2023-06-10T00:00:53;5.25;;;4.75;;
17917;SDS011;9084;50.956;3.106;2023-06-10T00:03:18;4.90;;;4.50;;
17917;SDS011;9084;50.956;3.106;2023-06-10T00:05:44;6.35;;;5.38;;
17917;SDS011;9084;50.956;3.106;2023-06-10T00:08:12;7.93;;;5.47;;
17917;SDS011;9084;50.956;3.106;2023-06-10T00:10:40;6.28;;;5.18;;
17917;SDS011;9084;50.956;3.106;2023-06-10T00:13:08;7.40;;;5.72;;
17917;SDS011;9084;50.956;3.106;2023-06-10T00:15:34;4.95;;;4.55;;
17917;SDS011;9084;50.956;3.106;2023-06-10T00:18:00;6.25;;;5.35;;
17917;SDS011;9084;50.956;3.106;2023-06-10T00:20:28;5.47;;;4.82;;
17917;SDS011;9084;50.956;3.106;2023-06-10T00:22:55;6.78;;;5.00;;
17917;SDS011;9084;50.956;3.106;2023-06-10T00:25:22;5.65;;;5.18;;
17917;SDS011;9084;50.956;3.106;2023-06-10T00:27:51;5.20;;;4.80;;
17917;SDS011;9084;50.956;3.106;2023-06-10T00:30:16;6.20;;;4.85;;
17917;SDS011;9084;50.956;3.106;2023-06-10T00:32:45;5.85;;;5.40;;
17917;SDS011;9084;50.956;3.106;2023-06-10T00:35:15;5.55;;;4.97;;
17917;SDS011;9084;50.956;3.106;2023-06-10T00:37:41;6.68;;;4.78;;
17917;SDS011;9084;50.956;3.106;2023-06-10T00:40:07;6.00;;;5.15;;
17917;SDS011;9084;50.956;3.106;2023-06-10T00:42:34;6.15;;;5.50;;
17917;SDS011;9084;50.956;3.106;2023-06-10T00:45:00;6.82;;;4.88;;
17917;SDS011;9084;50.956;3.106;2023-06-10T00:47:26;5.93;;;5.38;;
17917;SDS011;9084;50.956;3.106;2023-06-10T00:49:52;5.68;;;5.28;;
17917;SDS011;9084;50.956;3.106;2023-06-10T00:52:21;6.40;;;5.88;;
17917;SDS011;9084;50.956;3.106;2023-06-10T00:54:53;6.07;;;5.47;;
17917;SDS011;9084;50.956;3.106;2023-06-10T00:57:20;7.32;;;6.45;;
17917;SDS011;9084;50.956;3.106;2023-06-10T00:59:48;6.85;;;6.15;;
17917;SDS011;9084;50.956;3.106;2023-06-10T01:02:14;6.15;;;5.55;;
17917;SDS011;9084;50.956;3.106;2023-06-10T01:04:43;8.40;;;5.97;;
17917;SDS011;9084;50.956;3.106;2023-06-10T01:07:10;6.35;;;5.85;;
17917;SDS011;9084;50.956;3.106;2023-06-10T01:12:41;7.22;;;6.18;;
17917;SDS011;9084;50.956;3.106;2023-06-10T01:15:13;6.65;;;6.10;;
17917;SDS011;9084;50.956;3.106;2023-06-10T01:18:00;8.80;;;6.13;;
17917;SDS011;9084;50.956;3.106;2023-06-10T01:20:30;5.88;;;5.38;;
17917;SDS011;9084;50.956;3.106;2023-06-10T01:23:00;7.10;;;6.40;;
17917;SDS011;9084;50.956;3.106;2023-06-10T01:25:28;7.07;;;6.47;;
17917;SDS011;9084;50.956;3.106;2023-06-10T01:30:37;6.75;;;6.15;;
17917;SDS011;9084;50.956;3.106;2023-06-10T01:33:23;6.72;;;6.15;;
17917;SDS011;9084;50.956;3.106;2023-06-10T01:35:56;6.85;;;6.15;;
17917;SDS011;9084;50.956;3.106;2023-06-10T01:38:26;7.22;;;6.47;;
17917;SDS011;9084;50.956;3.106;2023-06-10T01:40:55;8.77;;;6.50;;
17917;SDS011;9084;50.956;3.106;2023-06-10T01:43:24;6.95;;;6.30;;
17917;SDS011;9084;50.956;3.106;2023-06-10T01:45:54;6.95;;;6.25;;
17917;SDS011;9084;50.956;3.106;2023-06-10T01:48:20;8.30;;;6.53;;
17917;SDS011;9084;50.956;3.106;2023-06-10T01:50:45;6.53;;;6.03;;
17917;SDS011;9084;50.956;3.106;2023-06-10T01:53:11;6.93;;;6.22;;
17917;SDS011;9084;50.956;3.106;2023-06-10T01:55:36;7.03;;;6.35;;
17917;SDS011;9084;50.956;3.106;2023-06-10T01:58:04;6.88;;;6.18;;
17917;SDS011;9084;50.956;3.106;2023-06-10T02:00:32;9.90;;;6.10;;
17917;SDS011;9084;50.956;3.106;2023-06-10T02:02:58;7.18;;;6.47;;
17917;SDS011;9084;50.956;3.106;2023-06-10T02:05:24;7.10;;;6.40;;
17917;SDS011;9084;50.956;3.106;2023-06-10T02:07:50;7.55;;;6.43;;
17917;SDS011;9084;50.956;3.106;2023-06-10T02:10:16;6.85;;;6.22;;
17917;SDS011;9084;50.956;3.106;2023-06-10T02:12:41;6.78;;;6.20;;
17917;SDS011;9084;50.956;3.106;2023-06-10T02:15:12;7.45;;;6.75;;
17917;SDS011;9084;50.956;3.106;2023-06-10T02:17:40;6.88;;;6.28;;
17917;SDS011;9084;50.956;3.106;2023-06-10T02:20:05;6.72;;;6.18;;
17917;SDS011;9084;50.956;3.106;2023-06-10T02:22:34;7.15;;;6.45;;
17917;SDS011;9084;50.956;3.106;2023-06-10T02:25:00;6.90;;;6.30;;
17917;SDS011;9084;50.956;3.106;2023-06-10T02:27:26;7.13;;;6.45;;
17917;SDS011;9084;50.956;3.106;2023-06-10T02:29:53;8.27;;;6.88;;
17917;SDS011;9084;50.956;3.106;2023-06-10T02:32:19;7.22;;;6.15;;
17917;SDS011;9084;50.956;3.106;2023-06-10T02:34:45;8.00;;;6.88;;
17917;SDS011;9084;50.956;3.106;2023-06-10T02:37:10;7.15;;;6.55;;
17917;SDS011;9084;50.956;3.106;2023-06-10T02:39:36;9.25;;;6.50;;
17917;SDS011;9084;50.956;3.106;2023-06-10T02:42:02;7.47;;;6.88;;
17917;SDS011;9084;50.956;3.106;2023-06-10T02:44:30;7.43;;;6.72;;
17917;SDS011;9084;50.956;3.106;2023-06-10T02:46:56;7.45;;;6.75;;
17917;SDS011;9084;50.956;3.106;2023-06-10T02:49:21;11.57;;;7.28;;
17917;SDS011;9084;50.956;3.106;2023-06-10T02:51:50;8.02;;;7.25;;
17917;SDS011;9084;50.956;3.106;2023-06-10T02:54:19;6.93;;;6.32;;
17917;SDS011;9084;50.956;3.106;2023-06-10T02:56:45;7.97;;;6.43;;
17917;SDS011;9084;50.956;3.106;2023-06-10T02:59:12;7.32;;;6.60;;
17917;SDS011;9084;50.956;3.106;2023-06-10T03:01:38;7.55;;;6.90;;
17917;SDS011;9084;50.956;3.106;2023-06-10T03:04:04;7.55;;;6.78;;
17917;SDS011;9084;50.956;3.106;2023-06-10T03:06:30;9.43;;;6.78;;
17917;SDS011;9084;50.956;3.106;2023-06-10T03:08:59;7.97;;;6.85;;
17917;SDS011;9084;50.956;3.106;2023-06-10T03:11:25;7.80;;;6.97;;
17917;SDS011;9084;50.956;3.106;2023-06-10T03:13:51;7.75;;;7.13;;
17917;SDS011;9084;50.956;3.106;2023-06-10T03:16:18;7.78;;;7.18;;
17917;SDS011;9084;50.956;3.106;2023-06-10T03:18:44;7.10;;;6.50;;
17917;SDS011;9084;50.956;3.106;2023-06-10T03:21:10;7.45;;;6.75;;
17917;SDS011;9084;50.956;3.106;2023-06-10T03:23:36;7.45;;;6.75;;
17917;SDS011;9084;50.956;3.106;2023-06-10T03:26:04;8.00;;;7.30;;
17917;SDS011;9084;50.956;3.106;2023-06-10T03:28:30;7.18;;;6.53;;
17917;SDS011;9084;50.956;3.106;2023-06-10T03:30:58;7.53;;;6.93;;
17917;SDS011;9084;50.956;3.106;2023-06-10T03:33:24;7.35;;;6.65;;
17917;SDS011;9084;50.956;3.106;2023-06-10T03:35:51;7.50;;;6.78;;
17917;SDS011;9084;50.956;3.106;2023-06-10T03:38:16;8.77;;;6.85;;
17917;SDS011;9084;50.956;3.106;2023-06-10T03:40:42;7.20;;;6.70;;
17917;SDS011;9084;50.956;3.106;2023-06-10T03:43:08;7.55;;;6.85;;
17917;SDS011;9084;50.956;3.106;2023-06-10T03:45:33;9.27;;;7.65;;
17917;SDS011;9084;50.956;3.106;2023-06-10T03:48:02;7.75;;;6.80;;
17917;SDS011;9084;50.956;3.106;2023-06-10T03:50:28;9.45;;;6.90;;
17917;SDS011;9084;50.956;3.106;2023-06-10T03:52:54;7.97;;;7.38;;
17917;SDS011;9084;50.956;3.106;2023-06-10T03:55:22;7.95;;;7.25;;
17917;SDS011;9084;50.956;3.106;2023-06-10T03:57:49;8.68;;;7.97;;
17917;SDS011;9084;50.956;3.106;2023-06-10T04:00:17;6.93;;;6.35;;
17917;SDS011;9084;50.956;3.106;2023-06-10T04:02:46;8.32;;;6.55;;
17917;SDS011;9084;50.956;3.106;2023-06-10T04:05:15;8.10;;;7.25;;
17917;SDS011;9084;50.956;3.106;2023-06-10T04:07:41;7.75;;;7.00;;
17917;SDS011;9084;50.956;3.106;2023-06-10T04:10:12;7.47;;;6.85;;
17917;SDS011;9084;50.956;3.106;2023-06-10T04:12:41;7.70;;;7.10;;
17917;SDS011;9084;50.956;3.106;2023-06-10T04:15:11;8.18;;;7.38;;
17917;SDS011;9084;50.956;3.106;2023-06-10T04:17:38;8.43;;;7.55;;
17917;SDS011;9084;50.956;3.106;2023-06-10T04:20:03;13.02;;;7.70;;
17917;SDS011;9084;50.956;3.106;2023-06-10T04:22:32;10.57;;;7.22;;
17917;SDS011;9084;50.956;3.106;2023-06-10T04:24:58;8.88;;;7.85;;
17917;SDS011;9084;50.956;3.106;2023-06-10T04:27:26;9.35;;;8.02;;
17917;SDS011;9084;50.956;3.106;2023-06-10T04:29:52;8.25;;;7.65;;
17917;SDS011;9084;50.956;3.106;2023-06-10T04:32:17;8.93;;;8.13;;
17917;SDS011;9084;50.956;3.106;2023-06-10T04:34:43;8.38;;;7.70;;
17917;SDS011;9084;50.956;3.106;2023-06-10T04:37:11;9.18;;;7.47;;
17917;SDS011;9084;50.956;3.106;2023-06-10T04:39:42;8.68;;;7.57;;
17917;SDS011;9084;50.956;3.106;2023-06-10T04:42:10;9.07;;;8.27;;
17917;SDS011;9084;50.956;3.106;2023-06-10T04:44:35;8.95;;;8.13;;
17917;SDS011;9084;50.956;3.106;2023-06-10T04:47:04;8.95;;;8.05;;
17917;SDS011;9084;50.956;3.106;2023-06-10T04:49:30;8.65;;;7.97;;
17917;SDS011;9084;50.956;3.106;2023-06-10T04:51:56;7.97;;;7.18;;
17917;SDS011;9084;50.956;3.106;2023-06-10T04:54:21;8.27;;;7.47;;
17917;SDS011;9084;50.956;3.106;2023-06-10T04:56:47;8.00;;;7.30;;
17917;SDS011;9084;50.956;3.106;2023-06-10T04:59:15;8.35;;;7.43;;
17917;SDS011;9084;50.956;3.106;2023-06-10T05:01:41;8.93;;;8.07;;
17917;SDS011;9084;50.956;3.106;2023-06-10T05:04:06;9.82;;;8.85;;
17917;SDS011;9084;50.956;3.106;2023-06-10T05:06:34;9.93;;;7.85;;
17917;SDS011;9084;50.956;3.106;2023-06-10T05:09:01;9.30;;;8.25;;
17917;SDS011;9084;50.956;3.106;2023-06-10T05:11:27;9.13;;;8.43;;
17917;SDS011;9084;50.956;3.106;2023-06-10T05:13:55;9.63;;;8.75;;
17917;SDS011;9084;50.956;3.106;2023-06-10T05:16:25;8.70;;;7.90;;
17917;SDS011;9084;50.956;3.106;2023-06-10T05:18:51;9.10;;;8.27;;
17917;SDS011;9084;50.956;3.106;2023-06-10T05:21:19;9.30;;;8.50;;
17917;SDS011;9084;50.956;3.106;2023-06-10T05:23:47;8.30;;;7.60;;
17917;SDS011;9084;50.956;3.106;2023-06-10T05:26:13;8.10;;;7.50;;
17917;SDS011;9084;50.956;3.106;2023-06-10T05:28:41;8.68;;;7.78;;
17917;SDS011;9084;50.956;3.106;2023-06-10T05:31:10;8.85;;;8.05;;
17917;SDS011;9084;50.956;3.106;2023-06-10T05:33:38;8.80;;;8.02;;
17917;SDS011;9084;50.956;3.106;2023-06-10T05:36:04;8.77;;;8.05;;
17917;SDS011;9084;50.956;3.106;2023-06-10T05:38:30;9.30;;;7.95;;
17917;SDS011;9084;50.956;3.106;2023-06-10T05:40:58;8.75;;;8.02;;
17917;SDS011;9084;50.956;3.106;2023-06-10T05:43:26;11.82;;;8.55;;
17917;SDS011;9084;50.956;3.106;2023-06-10T05:45:52;9.27;;;8.45;;
17917;SDS011;9084;50.956;3.106;2023-06-10T05:48:17;8.57;;;7.88;;
17917;SDS011;9084;50.956;3.106;2023-06-10T05:50:44;9.80;;;7.45;;
17917;SDS011;9084;50.956;3.106;2023-06-10T05:53:14;8.65;;;7.47;;
17917;SDS011;9084;50.956;3.106;2023-06-10T05:55:42;8.85;;;8.05;;
17917;SDS011;9084;50.956;3.106;2023-06-10T05:58:11;8.10;;;7.35;;
17917;SDS011;9084;50.956;3.106;2023-06-10T06:00:38;8.85;;;7.78;;
17917;SDS011;9084;50.956;3.106;2023-06-10T06:03:08;8.75;;;7.65;;
17917;SDS011;9084;50.956;3.106;2023-06-10T06:05:38;8.35;;;7.55;;
17917;SDS011;9084;50.956;3.106;2023-06-10T06:08:04;8.40;;;7.60;;
17917;SDS011;9084;50.956;3.106;2023-06-10T06:10:32;8.60;;;7.90;;
17917;SDS011;9084;50.956;3.106;2023-06-10T06:12:59;8.07;;;7.25;;
17917;SDS011;9084;50.956;3.106;2023-06-10T06:15:25;6.93;;;6.30;;
17917;SDS011;9084;50.956;3.106;2023-06-10T06:17:51;7.43;;;6.82;;
17917;SDS011;9084;50.956;3.106;2023-06-10T06:20:23;9.02;;;7.15;;
17917;SDS011;9084;50.956;3.106;2023-06-10T06:22:51;8.18;;;6.97;;
17917;SDS011;9084;50.956;3.106;2023-06-10T06:25:18;7.88;;;7.18;;
17917;SDS011;9084;50.956;3.106;2023-06-10T06:27:46;7.75;;;7.05;;
17917;SDS011;9084;50.956;3.106;2023-06-10T06:30:17;14.35;;;8.77;;
17917;SDS011;9084;50.956;3.106;2023-06-10T06:32:45;17.52;;;8.75;;
17917;SDS011;9084;50.956;3.106;2023-06-10T06:35:13;7.70;;;7.05;;
17917;SDS011;9084;50.956;3.106;2023-06-10T06:37:41;7.90;;;7.20;;
17917;SDS011;9084;50.956;3.106;2023-06-10T06:40:06;7.50;;;6.70;;
17917;SDS011;9084;50.956;3.106;2023-06-10T06:42:32;7.35;;;6.43;;
17917;SDS011;9084;50.956;3.106;2023-06-10T06:44:58;7.18;;;6.30;;
17917;SDS011;9084;50.956;3.106;2023-06-10T06:47:26;7.80;;;7.07;;
17917;SDS011;9084;50.956;3.106;2023-06-10T06:49:51;6.75;;;6.25;;
17917;SDS011;9084;50.956;3.106;2023-06-10T06:52:19;8.50;;;7.15;;
17917;SDS011;9084;50.956;3.106;2023-06-10T06:54:45;8.13;;;6.35;;
17917;SDS011;9084;50.956;3.106;2023-06-10T06:57:11;6.95;;;6.28;;
17917;SDS011;9084;50.956;3.106;2023-06-10T06:59:39;6.82;;;6.00;;
17917;SDS011;9084;50.956;3.106;2023-06-10T07:02:04;12.05;;;8.00;;
17917;SDS011;9084;50.956;3.106;2023-06-10T07:04:30;29.65;;;9.48;;
17917;SDS011;9084;50.956;3.106;2023-06-10T07:06:56;7.43;;;6.70;;
17917;SDS011;9084;50.956;3.106;2023-06-10T07:09:22;8.75;;;6.03;;
17917;SDS011;9084;50.956;3.106;2023-06-10T07:11:50;7.00;;;6.40;;
17917;SDS011;9084;50.956;3.106;2023-06-10T07:14:23;7.45;;;6.85;;
17917;SDS011;9084;50.956;3.106;2023-06-10T07:16:51;6.55;;;5.95;;
17917;SDS011;9084;50.956;3.106;2023-06-10T07:19:16;7.97;;;6.03;;
17917;SDS011;9084;50.956;3.106;2023-06-10T07:21:42;7.18;;;5.80;;
17917;SDS011;9084;50.956;3.106;2023-06-10T07:24:08;7.63;;;6.45;;
17917;SDS011;9084;50.956;3.106;2023-06-10T07:26:33;6.03;;;5.38;;
17917;SDS011;9084;50.956;3.106;2023-06-10T07:29:01;11.27;;;6.72;;
17917;SDS011;9084;50.956;3.106;2023-06-10T07:31:32;6.35;;;5.78;;
17917;SDS011;9084;50.956;3.106;2023-06-10T07:33:59;5.90;;;5.35;;
17917;SDS011;9084;50.956;3.106;2023-06-10T07:36:25;6.43;;;5.93;;
17917;SDS011;9084;50.956;3.106;2023-06-10T07:38:55;10.05;;;5.95;;
17917;SDS011;9084;50.956;3.106;2023-06-10T07:41:22;6.70;;;5.78;;
17917;SDS011;9084;50.956;3.106;2023-06-10T07:43:49;6.85;;;6.15;;
17917;SDS011;9084;50.956;3.106;2023-06-10T07:46:19;6.93;;;5.43;;
17917;SDS011;9084;50.956;3.106;2023-06-10T07:48:52;22.02;;;7.55;;
17917;SDS011;9084;50.956;3.106;2023-06-10T07:51:18;6.82;;;5.78;;
17917;SDS011;9084;50.956;3.106;2023-06-10T07:53:46;9.82;;;6.47;;
17917;SDS011;9084;50.956;3.106;2023-06-10T07:56:11;14.20;;;6.90;;
17917;SDS011;9084;50.956;3.106;2023-06-10T07:58:39;9.40;;;6.68;;
17917;SDS011;9084;50.956;3.106;2023-06-10T08:01:07;10.15;;;6.00;;
17917;SDS011;9084;50.956;3.106;2023-06-10T08:03:35;7.72;;;6.10;;
17917;SDS011;9084;50.956;3.106;2023-06-10T08:06:01;6.88;;;6.10;;
17917;SDS011;9084;50.956;3.106;2023-06-10T08:08:27;6.68;;;5.90;;
17917;SDS011;9084;50.956;3.106;2023-06-10T08:10:55;6.97;;;6.28;;
17917;SDS011;9084;50.956;3.106;2023-06-10T08:13:21;6.70;;;5.57;;
17917;SDS011;9084;50.956;3.106;2023-06-10T08:15:47;11.63;;;6.90;;
17917;SDS011;9084;50.956;3.106;2023-06-10T08:18:15;7.47;;;6.45;;
17917;SDS011;9084;50.956;3.106;2023-06-10T08:20:45;6.80;;;6.13;;
17917;SDS011;9084;50.956;3.106;2023-06-10T08:23:11;7.10;;;6.10;;
17917;SDS011;9084;50.956;3.106;2023-06-10T08:25:41;9.93;;;6.35;;
17917;SDS011;9084;50.956;3.106;2023-06-10T08:28:07;10.07;;;5.63;;
17917;SDS011;9084;50.956;3.106;2023-06-10T08:30:35;7.03;;;5.90;;
17917;SDS011;9084;50.956;3.106;2023-06-10T08:33:03;9.98;;;5.85;;
17917;SDS011;9084;50.956;3.106;2023-06-10T08:35:31;6.15;;;5.63;;
17917;SDS011;9084;50.956;3.106;2023-06-10T08:37:59;6.93;;;6.22;;
17917;SDS011;9084;50.956;3.106;2023-06-10T08:40:24;5.90;;;5.40;;
17917;SDS011;9084;50.956;3.106;2023-06-10T08:45:25;6.38;;;5.85;;
17917;SDS011;9084;50.956;3.106;2023-06-10T08:47:56;5.90;;;5.32;;
17917;SDS011;9084;50.956;3.106;2023-06-10T08:50:23;6.05;;;5.55;;
17917;SDS011;9084;50.956;3.106;2023-06-10T08:52:50;8.50;;;5.90;;
17917;SDS011;9084;50.956;3.106;2023-06-10T08:55:30;5.32;;;4.82;;
17917;SDS011;9084;50.956;3.106;2023-06-10T08:58:01;6.53;;;5.85;;
17917;SDS011;9084;50.956;3.106;2023-06-10T09:00:27;6.45;;;5.10;;
17917;SDS011;9084;50.956;3.106;2023-06-10T09:02:58;5.55;;;5.13;;
17917;SDS011;9084;50.956;3.106;2023-06-10T09:05:24;6.13;;;5.07;;
17917;SDS011;9084;50.956;3.106;2023-06-10T09:07:52;7.75;;;5.00;;
17917;SDS011;9084;50.956;3.106;2023-06-10T09:10:20;6.63;;;5.40;;
17917;SDS011;9084;50.956;3.106;2023-06-10T09:12:46;5.25;;;4.63;;
17917;SDS011;9084;50.956;3.106;2023-06-10T09:15:12;5.13;;;4.80;;
17917;SDS011;9084;50.956;3.106;2023-06-10T09:17:39;6.43;;;5.32;;
17917;SDS011;9084;50.956;3.106;2023-06-10T09:20:08;6.07;;;5.38;;
17917;SDS011;9084;50.956;3.106;2023-06-10T09:22:37;5.78;;;4.93;;
17917;SDS011;9084;50.956;3.106;2023-06-10T09:27:30;5.85;;;5.35;;
17917;SDS011;9084;50.956;3.106;2023-06-10T09:29:59;6.32;;;5.00;;
17917;SDS011;9084;50.956;3.106;2023-06-10T09:32:27;10.85;;;6.35;;
17917;SDS011;9084;50.956;3.106;2023-06-10T09:34:54;10.85;;;5.28;;
17917;SDS011;9084;50.956;3.106;2023-06-10T09:37:20;6.20;;;5.07;;
17917;SDS011;9084;50.956;3.106;2023-06-10T09:40:05;5.10;;;4.60;;
17917;SDS011;9084;50.956;3.106;2023-06-10T09:42:37;4.75;;;4.40;;
17917;SDS011;9084;50.956;3.106;2023-06-10T09:45:04;5.40;;;4.90;;
17917;SDS011;9084;50.956;3.106;2023-06-10T09:47:34;4.90;;;4.50;;
17917;SDS011;9084;50.956;3.106;2023-06-10T09:50:00;5.45;;;4.95;;
17917;SDS011;9084;50.956;3.106;2023-06-10T09:52:27;4.60;;;4.20;;
17917;SDS011;9084;50.956;3.106;2023-06-10T09:54:59;5.20;;;4.78;;
17917;SDS011;9084;50.956;3.106;2023-06-10T09:57:26;6.28;;;4.65;;
17917;SDS011;9084;50.956;3.106;2023-06-10T09:59:58;5.65;;;4.63;;
17917;SDS011;9084;50.956;3.106;2023-06-10T10:02:24;5.82;;;5.03;;
17917;SDS011;9084;50.956;3.106;2023-06-10T10:04:50;5.97;;;4.88;;
17917;SDS011;9084;50.956;3.106;2023-06-10T10:07:15;5.57;;;4.78;;
17917;SDS011;9084;50.956;3.106;2023-06-10T10:09:42;5.60;;;4.95;;
17917;SDS011;9084;50.956;3.106;2023-06-10T10:14:46;5.43;;;4.97;;
17917;SDS011;9084;50.956;3.106;2023-06-10T10:17:15;4.53;;;3.88;;
17917;SDS011;9084;50.956;3.106;2023-06-10T10:19:48;9.73;;;5.78;;
17917;SDS011;9084;50.956;3.106;2023-06-10T10:22:26;5.47;;;4.90;;
17917;SDS011;9084;50.956;3.106;2023-06-10T10:25:01;4.78;;;4.38;;
17917;SDS011;9084;50.956;3.106;2023-06-10T10:27:33;4.88;;;4.50;;
17917;SDS011;9084;50.956;3.106;2023-06-10T10:30:08;8.07;;;4.90;;
17917;SDS011;9084;50.956;3.106;2023-06-10T10:32:38;4.63;;;4.22;;
17917;SDS011;9084;50.956;3.106;2023-06-10T10:35:20;4.32;;;4.03;;
17917;SDS011;9084;50.956;3.106;2023-06-10T10:37:51;7.18;;;4.40;;
17917;SDS011;9084;50.956;3.106;2023-06-10T10:40:19;6.38;;;3.78;;
17917;SDS011;9084;50.956;3.106;2023-06-10T10:42:49;6.07;;;4.45;;
17917;SDS011;9084;50.956;3.106;2023-06-10T10:45:15;4.32;;;4.03;;
17917;SDS011;9084;50.956;3.106;2023-06-10T10:47:42;4.70;;;3.70;;
17917;SDS011;9084;50.956;3.106;2023-06-10T10:50:15;7.85;;;3.90;;
17917;SDS011;9084;50.956;3.106;2023-06-10T10:55:21;5.30;;;4.22;;
17917;SDS011;9084;50.956;3.106;2023-06-10T10:58:11;4.05;;;3.70;;
17917;SDS011;9084;50.956;3.106;2023-06-10T11:00:43;4.15;;;3.85;;
17917;SDS011;9084;50.956;3.106;2023-06-10T11:03:13;4.18;;;3.88;;
17917;SDS011;9084;50.956;3.106;2023-06-10T11:05:42;4.70;;;4.15;;
17917;SDS011;9084;50.956;3.106;2023-06-10T11:08:12;4.90;;;4.07;;
17917;SDS011;9084;50.956;3.106;2023-06-10T11:10:39;4.75;;;3.70;;
17917;SDS011;9084;50.956;3.106;2023-06-10T11:13:12;4.60;;;3.70;;
17917;SDS011;9084;50.956;3.106;2023-06-10T11:15:46;3.97;;;3.67;;
17917;SDS011;9084;50.956;3.106;2023-06-10T11:18:28;7.47;;;4.38;;
17917;SDS011;9084;50.956;3.106;2023-06-10T11:31:25;4.20;;;3.78;;
17917;SDS011;9084;50.956;3.106;2023-06-10T11:36:30;6.28;;;4.15;;
17917;SDS011;9084;50.956;3.106;2023-06-10T11:38:57;5.97;;;4.20;;
17917;SDS011;9084;50.956;3.106;2023-06-10T11:41:24;4.30;;;3.92;;
17917;SDS011;9084;50.956;3.106;2023-06-10T11:43:51;4.15;;;3.80;;
17917;SDS011;9084;50.956;3.106;2023-06-10T11:46:26;5.75;;;4.30;;
17917;SDS011;9084;50.956;3.106;2023-06-10T11:48:55;5.65;;;3.30;;
17917;SDS011;9084;50.956;3.106;2023-06-10T11:51:23;9.63;;;4.38;;
17917;SDS011;9084;50.956;3.106;2023-06-10T11:53:50;4.72;;;4.22;;
17917;SDS011;9084;50.956;3.106;2023-06-10T11:56:27;4.28;;;3.97;;
17917;SDS011;9084;50.956;3.106;2023-06-10T11:58:58;7.53;;;3.50;;
17917;SDS011;9084;50.956;3.106;2023-06-10T12:01:30;4.07;;;3.67;;
17917;SDS011;9084;50.956;3.106;2023-06-10T12:03:57;5.82;;;3.70;;
17917;SDS011;9084;50.956;3.106;2023-06-10T12:06:24;4.30;;;2.90;;
17917;SDS011;9084;50.956;3.106;2023-06-10T12:08:49;4.30;;;3.30;;
17917;SDS011;9084;50.956;3.106;2023-06-10T12:11:15;4.10;;;3.70;;
17917;SDS011;9084;50.956;3.106;2023-06-10T12:13:47;3.50;;;3.17;;
17917;SDS011;9084;50.956;3.106;2023-06-10T12:16:14;4.00;;;3.60;;
17917;SDS011;9084;50.956;3.106;2023-06-10T12:18:42;5.75;;;3.58;;
17917;SDS011;9084;50.956;3.106;2023-06-10T12:21:18;3.75;;;3.45;;
17917;SDS011;9084;50.956;3.106;2023-06-10T12:26:43;3.63;;;3.30;;
17917;SDS011;9084;50.956;3.106;2023-06-10T12:34:35;6.30;;;3.83;;
17917;SDS011;9084;50.956;3.106;2023-06-10T12:37:03;4.95;;;3.85;;
17917;SDS011;9084;50.956;3.106;2023-06-10T12:39:32;4.15;;;3.85;;
17917;SDS011;9084;50.956;3.106;2023-06-10T12:42:01;4.20;;;3.80;;
17917;SDS011;9084;50.956;3.106;2023-06-10T12:44:32;4.65;;;3.55;;
17917;SDS011;9084;50.956;3.106;2023-06-10T12:46:59;8.90;;;3.78;;
17917;SDS011;9084;50.956;3.106;2023-06-10T12:49:26;4.03;;;3.63;;
17917;SDS011;9084;50.956;3.106;2023-06-10T12:51:52;3.78;;;3.40;;
17917;SDS011;9084;50.956;3.106;2023-06-10T12:54:18;3.85;;;3.55;;
17917;SDS011;9084;50.956;3.106;2023-06-10T12:56:44;4.07;;;3.78;;
17917;SDS011;9084;50.956;3.106;2023-06-10T12:59:10;3.78;;;3.42;;
17917;SDS011;9084;50.956;3.106;2023-06-10T13:01:38;2.92;;;2.72;;
17917;SDS011;9084;50.956;3.106;2023-06-10T13:04:04;4.20;;;3.85;;
17917;SDS011;9084;50.956;3.106;2023-06-10T13:06:34;3.70;;;3.30;;
17917;SDS011;9084;50.956;3.106;2023-06-10T13:09:03;4.43;;;3.70;;
17917;SDS011;9084;50.956;3.106;2023-06-10T13:11:32;4.38;;;4.00;;
17917;SDS011;9084;50.956;3.106;2023-06-10T13:13:58;4.05;;;3.63;;
17917;SDS011;9084;50.956;3.106;2023-06-10T13:16:23;3.45;;;3.17;;
17917;SDS011;9084;50.956;3.106;2023-06-10T13:18:49;3.92;;;3.63;;
17917;SDS011;9084;50.956;3.106;2023-06-10T13:21:14;3.67;;;3.38;;
17917;SDS011;9084;50.956;3.106;2023-06-10T13:23:44;3.97;;;3.40;;
17917;SDS011;9084;50.956;3.106;2023-06-10T13:26:14;5.63;;;3.30;;
17917;SDS011;9084;50.956;3.106;2023-06-10T13:28:45;3.97;;;3.55;;
17917;SDS011;9084;50.956;3.106;2023-06-10T13:31:13;4.50;;;3.58;;
17917;SDS011;9084;50.956;3.106;2023-06-10T13:33:39;6.70;;;3.60;;
17917;SDS011;9084;50.956;3.106;2023-06-10T13:36:05;5.32;;;3.63;;
17917;SDS011;9084;50.956;3.106;2023-06-10T13:38:31;4.57;;;3.55;;
17917;SDS011;9084;50.956;3.106;2023-06-10T13:40:56;4.15;;;3.78;;
17917;SDS011;9084;50.956;3.106;2023-06-10T13:43:22;4.10;;;3.42;;
17917;SDS011;9084;50.956;3.106;2023-06-10T13:45:48;3.72;;;3.30;;
17917;SDS011;9084;50.956;3.106;2023-06-10T13:48:14;4.13;;;3.83;;
17917;SDS011;9084;50.956;3.106;2023-06-10T13:50:42;4.05;;;3.58;;
17917;SDS011;9084;50.956;3.106;2023-06-10T13:53:10;4.20;;;3.90;;
17917;SDS011;9084;50.956;3.106;2023-06-10T13:55:36;3.83;;;3.53;;
17917;SDS011;9084;50.956;3.106;2023-06-10T13:58:02;4.72;;;3.42;;
17917;SDS011;9084;50.956;3.106;2023-06-10T14:00:28;4.07;;;3.70;;
17917;SDS011;9084;50.956;3.106;2023-06-10T14:02:53;3.70;;;3.40;;
17917;SDS011;9084;50.956;3.106;2023-06-10T14:05:19;6.03;;;3.80;;
17917;SDS011;9084;50.956;3.106;2023-06-10T14:07:45;6.13;;;3.60;;
17917;SDS011;9084;50.956;3.106;2023-06-10T14:10:10;4.03;;;3.60;;
17917;SDS011;9084;50.956;3.106;2023-06-10T14:12:36;4.68;;;3.85;;
17917;SDS011;9084;50.956;3.106;2023-06-10T14:15:02;4.28;;;3.88;;
17917;SDS011;9084;50.956;3.106;2023-06-10T14:17:28;4.45;;;3.83;;
17917;SDS011;9084;50.956;3.106;2023-06-10T14:19:53;4.57;;;3.75;;
17917;SDS011;9084;50.956;3.106;2023-06-10T14:22:21;4.10;;;3.70;;
17917;SDS011;9084;50.956;3.106;2023-06-10T14:24:49;5.18;;;3.75;;
17917;SDS011;9084;50.956;3.106;2023-06-10T14:27:14;4.28;;;3.38;;
17917;SDS011;9084;50.956;3.106;2023-06-10T14:29:40;4.88;;;3.22;;
17917;SDS011;9084;50.956;3.106;2023-06-10T14:32:06;4.68;;;3.35;;
17917;SDS011;9084;50.956;3.106;2023-06-10T14:34:34;3.60;;;3.40;;
17917;SDS011;9084;50.956;3.106;2023-06-10T14:37:00;3.88;;;3.08;;
17917;SDS011;9084;50.956;3.106;2023-06-10T14:39:28;3.38;;;3.17;;
17917;SDS011;9084;50.956;3.106;2023-06-10T14:41:53;4.03;;;3.28;;
17917;SDS011;9084;50.956;3.106;2023-06-10T14:44:19;3.35;;;3.05;;
17917;SDS011;9084;50.956;3.106;2023-06-10T14:46:50;3.13;;;2.92;;
17917;SDS011;9084;50.956;3.106;2023-06-10T14:49:15;5.00;;;3.05;;
17917;SDS011;9084;50.956;3.106;2023-06-10T14:51:41;4.63;;;3.65;;
17917;SDS011;9084;50.956;3.106;2023-06-10T14:54:07;3.75;;;3.40;;
17917;SDS011;9084;50.956;3.106;2023-06-10T14:56:32;4.20;;;3.38;;
17917;SDS011;9084;50.956;3.106;2023-06-10T14:58:58;3.70;;;3.40;;
17917;SDS011;9084;50.956;3.106;2023-06-10T15:01:24;6.63;;;3.20;;
17917;SDS011;9084;50.956;3.106;2023-06-10T15:03:49;3.60;;;3.30;;
17917;SDS011;9084;50.956;3.106;2023-06-10T15:06:17;6.20;;;3.30;;
17917;SDS011;9084;50.956;3.106;2023-06-10T15:08:48;5.03;;;3.30;;
17917;SDS011;9084;50.956;3.106;2023-06-10T15:11:17;3.97;;;3.67;;
17917;SDS011;9084;50.956;3.106;2023-06-10T15:13:42;3.90;;;3.50;;
17917;SDS011;9084;50.956;3.106;2023-06-10T15:16:15;4.28;;;3.55;;
17917;SDS011;9084;50.956;3.106;2023-06-10T15:18:41;6.40;;;3.50;;
17917;SDS011;9084;50.956;3.106;2023-06-10T15:21:06;3.80;;;3.50;;
17917;SDS011;9084;50.956;3.106;2023-06-10T15:23:35;5.45;;;3.78;;
17917;SDS011;9084;50.956;3.106;2023-06-10T15:26:00;3.50;;;3.20;;
17917;SDS011;9084;50.956;3.106;2023-06-10T15:28:28;6.50;;;3.97;;
17917;SDS011;9084;50.956;3.106;2023-06-10T15:30:54;3.63;;;3.33;;
17917;SDS011;9084;50.956;3.106;2023-06-10T15:33:20;3.90;;;3.50;;
17917;SDS011;9084;50.956;3.106;2023-06-10T15:35:50;7.72;;;4.10;;
17917;SDS011;9084;50.956;3.106;2023-06-10T15:38:17;6.32;;;3.50;;
17917;SDS011;9084;50.956;3.106;2023-06-10T15:40:43;4.00;;;3.60;;